Time;durP1;ratioP1;P1;durP2;ratioP2;P2;SDS_P1;SDS_P2;PMS_P1;PMS_P2;Temp;Humidity;BMP_temperature;BMP_pressure;BME280_temperature;BME280_humidity;BME280_pressure;Samples;Min_cycle;Max_cycle;Signal;HPM_P1;HPM_P2
2024/01/05 00:01:05;;;;;;;15.57;9.82;;;;;;;6.60;100.00;99970.28;4746061;30;20156;-76
2024/01/05 00:03:30;;;;;;;16.88;9.13;;;;;;;6.50;100.00;99965.34;4747681;30;20336;-76
2024/01/05 00:05:55;;;;;;;16.25;8.60;;;;;;;6.45;100.00;99972.03;4745372;30;20070;-76
2024/01/05 00:08:21;;;;;;;16.83;8.38;;;;;;;6.30;100.00;99959.03;4740130;30;20120;-76
2024/01/05 00:10:46;;;;;;;15.75;8.10;;;;;;;6.27;100.00;99957.81;4743270;30;20051;-76
2024/01/05 00:13:11;;;;;;;17.40;9.45;;;;;;;6.04;100.00;99949.47;4742718;30;20099;-76
2024/01/05 00:15:37;;;;;;;13.43;8.35;;;;;;;6.00;100.00;99940.28;4745345;30;20396;-77
2024/01/05 00:18:02;;;;;;;14.65;8.55;;;;;;;5.85;100.00;99939.19;4748630;30;20395;-77
2024/01/05 00:20:28;;;;;;;16.70;8.48;;;;;;;6.05;100.00;99928.88;4743237;30;20039;-77
2024/01/05 00:22:53;;;;;;;16.83;9.50;;;;;;;6.24;100.00;99935.50;4741633;30;20043;-77
2024/01/05 00:25:21;;;;;;;15.95;9.00;;;;;;;6.27;100.00;99918.09;4748182;30;20143;-77
2024/01/05 00:27:47;;;;;;;14.45;8.73;;;;;;;6.40;100.00;99921.50;4743026;30;20689;-77
2024/01/05 00:30:13;;;;;;;18.88;8.23;;;;;;;6.16;100.00;99915.16;4750896;30;20105;-77
2024/01/05 00:32:39;;;;;;;16.58;8.45;;;;;;;6.15;100.00;99910.75;4748308;30;20031;-77
2024/01/05 00:35:04;;;;;;;16.25;8.95;;;;;;;6.19;100.00;99900.50;4747494;30;20074;-76
2024/01/05 00:37:30;;;;;;;16.67;7.93;;;;;;;6.00;100.00;99898.59;4747149;30;20138;-76
2024/01/05 00:39:55;;;;;;;14.23;8.15;;;;;;;6.34;100.00;99890.41;4748003;30;20024;-76
2024/01/05 00:42:20;;;;;;;18.60;8.93;;;;;;;6.35;100.00;99891.25;4746792;30;20032;-76
2024/01/05 00:44:46;;;;;;;15.63;7.85;;;;;;;6.27;100.00;99882.78;4743269;30;20053;-77
2024/01/05 00:47:11;;;;;;;13.07;8.65;;;;;;;6.15;100.00;99863.53;4742279;30;20040;-76
2024/01/05 00:49:37;;;;;;;15.85;9.13;;;;;;;6.08;100.00;99863.41;4745591;30;20047;-77
2024/01/05 00:52:03;;;;;;;15.35;9.05;;;;;;;5.99;100.00;99862.88;4746264;30;20123;-76
2024/01/05 00:54:28;;;;;;;14.60;8.40;;;;;;;6.08;100.00;99855.09;4745879;30;20511;-76
2024/01/05 00:56:54;;;;;;;16.10;8.85;;;;;;;6.01;100.00;99850.22;4747916;30;20491;-76
2024/01/05 00:59:19;;;;;;;12.80;7.82;;;;;;;6.04;100.00;99843.13;4744029;30;20795;-76
2024/01/05 01:01:45;;;;;;;11.43;8.00;;;;;;;6.05;100.00;99839.16;4736517;30;20043;-76
2024/01/05 01:04:13;;;;;;;11.07;7.95;;;;;;;6.02;100.00;99837.13;4741653;30;20045;-76
2024/01/05 01:06:39;;;;;;;13.02;8.07;;;;;;;5.83;100.00;99833.22;4744668;30;20055;-78
2024/01/05 01:09:05;;;;;;;13.77;8.73;;;;;;;5.82;100.00;99820.53;4747401;30;20040;-76
2024/01/05 01:11:38;;;;;;;13.38;7.82;;;;;;;5.89;100.00;99823.41;4741881;30;20050;-76
2024/01/05 01:14:04;;;;;;;12.80;8.63;;;;;;;5.95;100.00;99823.13;4744178;30;20043;-77
2024/01/05 01:16:32;;;;;;;16.02;8.65;;;;;;;5.86;100.00;99809.44;4744694;30;20044;-76
2024/01/05 01:18:57;;;;;;;16.30;8.55;;;;;;;5.76;100.00;99816.44;4746332;30;20051;-75
2024/01/05 01:21:22;;;;;;;15.90;8.15;;;;;;;5.88;100.00;99807.09;4746733;30;20032;-76
2024/01/05 01:23:54;;;;;;;18.13;9.18;;;;;;;6.00;100.00;99804.16;4746553;30;20036;-76
2024/01/05 01:26:20;;;;;;;13.70;9.25;;;;;;;6.14;100.00;99809.16;4748461;30;20082;-76
2024/01/05 01:28:45;;;;;;;16.02;8.55;;;;;;;6.01;100.00;99804.94;4739908;30;20062;-76
2024/01/05 01:31:10;;;;;;;13.35;8.48;;;;;;;5.98;100.00;99816.81;4746607;30;20070;-75
2024/01/05 01:33:36;;;;;;;16.23;8.00;;;;;;;6.14;100.00;99813.91;4746279;30;20082;-76
2024/01/05 01:36:01;;;;;;;14.25;9.52;;;;;;;6.10;100.00;99809.09;4745656;30;20090;-75
2024/01/05 01:38:27;;;;;;;12.55;8.77;;;;;;;6.14;100.00;99798.03;4741296;30;20047;-75
2024/01/05 01:40:55;;;;;;;11.45;8.45;;;;;;;6.06;100.00;99802.66;4743080;30;20098;-76
2024/01/05 01:43:25;;;;;;;13.82;8.10;;;;;;;6.30;100.00;99795.91;4746870;30;20043;-75
2024/01/05 01:46:00;;;;;;;14.93;9.40;;;;;;;6.30;100.00;99786.72;4743095;30;20032;-76
2024/01/05 01:48:27;;;;;;;13.43;8.52;;;;;;;6.23;100.00;99790.22;4749624;30;20124;-76
2024/01/05 01:50:55;;;;;;;13.80;8.63;;;;;;;5.96;100.00;99774.72;4746089;30;20442;-76
2024/01/05 01:53:23;;;;;;;13.40;8.90;;;;;;;6.08;100.00;99782.84;4749368;30;20399;-76
2024/01/05 01:55:50;;;;;;;14.52;8.63;;;;;;;6.02;100.00;99778.78;4745643;30;20044;-76
2024/01/05 01:58:20;;;;;;;14.80;8.40;;;;;;;6.00;100.00;99770.03;4746597;30;20042;-76
2024/01/05 02:00:46;;;;;;;12.07;8.85;;;;;;;6.03;100.00;99767.31;4744619;30;20062;-76
2024/01/05 02:03:13;;;;;;;11.23;8.73;;;;;;;6.20;100.00;99763.19;4745252;30;20067;-76
2024/01/05 02:05:43;;;;;;;15.52;9.07;;;;;;;6.10;100.00;99763.84;4744192;30;20095;-76
2024/01/05 02:08:08;;;;;;;14.40;9.05;;;;;;;6.08;100.00;99760.63;4746942;30;20036;-76
2024/01/05 02:10:36;;;;;;;12.82;7.95;;;;;;;6.21;100.00;99759.22;4760709;30;20066;-76
2024/01/05 02:13:02;;;;;;;13.80;9.02;;;;;;;6.07;100.00;99743.16;4752088;30;20040;-77
2024/01/05 02:15:27;;;;;;;13.60;8.23;;;;;;;6.07;100.00;99751.50;4758314;30;20047;-77
2024/01/05 02:17:52;;;;;;;10.82;8.07;;;;;;;6.06;100.00;99737.97;4757215;30;20047;-77
2024/01/05 02:20:18;;;;;;;13.23;8.00;;;;;;;6.00;100.00;99742.25;4756619;30;20039;-77
2024/01/05 02:22:47;;;;;;;12.52;7.68;;;;;;;5.91;100.00;99740.50;4748450;30;20028;-77
2024/01/05 02:25:12;;;;;;;12.80;7.65;;;;;;;6.06;100.00;99737.97;4744594;30;20119;-77
2024/01/05 02:27:38;;;;;;;12.40;8.52;;;;;;;6.16;100.00;99733.75;4747160;30;20059;-77
2024/01/05 02:30:04;;;;;;;14.30;9.13;;;;;;;6.17;100.00;99719.47;4746752;30;20039;-76
2024/01/05 02:32:30;;;;;;;13.10;8.63;;;;;;;6.06;100.00;99724.88;4745374;30;20036;-77
2024/01/05 02:34:56;;;;;;;13.18;8.40;;;;;;;6.15;100.00;99710.72;4745540;30;20051;-77
2024/01/05 02:37:21;;;;;;;14.23;8.55;;;;;;;6.00;100.00;99722.81;4749068;30;20036;-77
2024/01/05 02:39:47;;;;;;;13.13;7.82;;;;;;;6.07;100.00;99703.44;4750254;30;20544;-76
2024/01/05 02:42:12;;;;;;;12.45;8.38;;;;;;;6.12;100.00;99707.91;4745444;30;20048;-76
2024/01/05 02:44:38;;;;;;;12.98;8.05;;;;;;;6.35;100.00;99708.59;4748002;30;20100;-77
2024/01/05 02:47:03;;;;;;;12.77;8.73;;;;;;;6.38;100.00;99709.81;4740537;30;20028;-76
2024/01/05 02:49:28;;;;;;;17.50;9.23;;;;;;;6.49;100.00;99697.66;4750070;30;20044;-77
2024/01/05 02:51:54;;;;;;;12.90;8.40;;;;;;;6.44;100.00;99686.06;4747291;30;20031;-76
2024/01/05 02:54:19;;;;;;;11.73;8.20;;;;;;;6.46;100.00;99687.28;4746214;30;20071;-76
2024/01/05 02:56:44;;;;;;;17.73;10.38;;;;;;;6.25;100.00;99682.25;4746035;30;20078;-76
2024/01/05 02:59:10;;;;;;;14.57;9.25;;;;;;;6.36;100.00;99670.47;4748296;30;20067;-75
2024/01/05 03:01:35;;;;;;;13.57;9.30;;;;;;;6.26;100.00;99678.31;4749606;30;20035;-76
2024/01/05 03:04:01;;;;;;;13.65;8.73;;;;;;;6.34;100.00;99664.50;4745237;30;20040;-76
2024/01/05 03:06:27;;;;;;;15.25;9.32;;;;;;;6.47;100.00;99671.41;4740892;30;20056;-76
2024/01/05 03:08:52;;;;;;;16.13;9.07;;;;;;;6.51;100.00;99658.34;4748068;30;20048;-77
2024/01/05 03:11:17;;;;;;;12.63;8.85;;;;;;;6.61;100.00;99666.00;4749106;30;20203;-76
2024/01/05 03:13:43;;;;;;;14.98;8.88;;;;;;;6.58;100.00;99652.88;4747370;30;20040;-75
2024/01/05 03:16:08;;;;;;;15.95;9.63;;;;;;;6.52;100.00;99651.63;4749653;30;20115;-75
2024/01/05 03:18:33;;;;;;;16.75;10.65;;;;;;;6.52;100.00;99648.84;4750749;30;20500;-75
2024/01/05 03:20:59;;;;;;;14.82;9.77;;;;;;;6.51;100.00;99638.88;4748040;30;20134;-75
2024/01/05 03:23:24;;;;;;;12.52;10.18;;;;;;;6.56;100.00;99635.78;4746081;30;20036;-75
2024/01/05 03:25:53;;;;;;;16.33;11.10;;;;;;;6.62;100.00;99639.00;4748892;30;20138;-75
2024/01/05 03:28:18;;;;;;;16.98;10.10;;;;;;;6.66;100.00;99635.09;4749897;30;20032;-75
2024/01/05 03:30:44;;;;;;;18.42;11.07;;;;;;;6.63;100.00;99618.38;4748550;30;20036;-75
2024/01/05 03:33:10;;;;;;;19.55;11.60;;;;;;;6.65;100.00;99622.34;4747106;30;20060;-75
2024/01/05 03:35:38;;;;;;;22.67;11.70;;;;;;;6.63;100.00;99613.59;4748636;30;20114;-75
2024/01/05 03:38:04;;;;;;;19.05;11.55;;;;;;;6.64;100.00;99608.81;4744789;30;20060;-75
2024/01/05 03:40:29;;;;;;;20.17;11.00;;;;;;;6.66;100.00;99607.28;4745228;30;20170;-75
2024/01/05 03:42:57;;;;;;;19.60;11.80;;;;;;;6.69;100.00;99600.94;4747719;30;20036;-75
2024/01/05 03:45:23;;;;;;;26.98;13.75;;;;;;;6.64;100.00;99590.19;4749157;30;20043;-75
2024/01/05 03:47:48;;;;;;;22.95;14.02;;;;;;;6.68;100.00;99591.03;4744669;30;20692;-75
2024/01/05 03:50:13;;;;;;;25.45;14.25;;;;;;;6.64;100.00;99587.41;4746570;30;20051;-75
2024/01/05 03:52:39;;;;;;;20.52;13.18;;;;;;;6.72;100.00;99594.63;4749226;30;20092;-75
2024/01/05 03:55:04;;;;;;;29.38;15.63;;;;;;;6.73;100.00;99581.53;4748620;30;20043;-75
2024/01/05 03:57:30;;;;;;;20.98;13.70;;;;;;;6.76;100.00;99582.72;4748287;30;20592;-75
2024/01/05 03:59:55;;;;;;;21.80;13.23;;;;;;;6.79;100.00;99576.38;4742795;30;20044;-75
2024/01/05 04:02:21;;;;;;;22.23;14.48;;;;;;;6.72;100.00;99572.38;4748966;30;20036;-75
2024/01/05 04:04:46;;;;;;;25.60;14.07;;;;;;;6.77;100.00;99564.84;4741083;30;20044;-75
2024/01/05 04:07:12;;;;;;;22.20;14.35;;;;;;;6.79;100.00;99573.59;4745771;30;20047;-76
2024/01/05 04:09:38;;;;;;;21.15;12.90;;;;;;;6.74;100.00;99551.72;4752671;30;20040;-76
2024/01/05 04:12:04;;;;;;;23.30;14.18;;;;;;;6.72;100.00;99555.69;4748351;30;20111;-76
2024/01/05 04:14:29;;;;;;;22.10;12.48;;;;;;;6.78;100.00;99549.78;4741150;30;20235;-76
2024/01/05 04:16:54;;;;;;;20.33;12.43;;;;;;;6.75;100.00;99553.34;4739632;30;20049;-77
2024/01/05 04:19:20;;;;;;;27.80;15.38;;;;;;;6.71;100.00;99551.31;4746294;30;20032;-76
2024/01/05 04:21:45;;;;;;;24.48;13.55;;;;;;;6.71;100.00;99542.97;4744152;30;20036;-76
2024/01/05 04:24:11;;;;;;;22.13;13.32;;;;;;;6.72;100.00;99541.78;4750828;30;20504;-76
2024/01/05 04:26:36;;;;;;;25.15;14.73;;;;;;;6.71;100.00;99531.03;4750746;30;20115;-76
2024/01/05 04:29:02;;;;;;;20.33;13.18;;;;;;;6.62;100.00;99531.38;4751150;30;20122;-76
2024/01/05 04:31:27;;;;;;;25.38;13.00;;;;;;;6.67;100.00;99530.22;4752517;30;20069;-76
2024/01/05 04:33:54;;;;;;;25.98;14.77;;;;;;;6.70;100.00;99527.47;4747730;30;20518;-76
2024/01/05 04:36:19;;;;;;;23.60;13.65;;;;;;;6.75;100.00;99520.75;4747964;30;20028;-76
2024/01/05 04:38:45;;;;;;;20.33;12.52;;;;;;;6.72;100.00;99532.63;4740967;30;20044;-76
2024/01/05 04:41:12;;;;;;;20.95;13.77;;;;;;;6.68;100.00;99521.50;4748524;30;20040;-76
2024/01/05 04:43:37;;;;;;;22.05;14.52;;;;;;;6.77;100.00;99515.59;4745422;30;20043;-76
2024/01/05 04:46:05;;;;;;;21.73;13.55;;;;;;;6.86;100.00;99516.06;4747608;30;20040;-76
2024/01/05 04:48:30;;;;;;;23.13;14.55;;;;;;;6.78;100.00;99503.28;4748741;30;20491;-77
2024/01/05 04:50:56;;;;;;;23.30;14.05;;;;;;;6.77;100.00;99504.47;4746541;30;20042;-76
2024/01/05 04:53:21;;;;;;;27.23;13.25;;;;;;;6.72;100.00;99500.09;4746287;30;20096;-76
2024/01/05 04:55:46;;;;;;;26.55;14.13;;;;;;;6.78;100.00;99500.50;4749830;30;20050;-76
2024/01/05 04:58:15;;;;;;;18.98;12.13;;;;;;;6.74;100.00;99496.09;4743966;30;20059;-76
2024/01/05 05:00:40;;;;;;;22.67;13.02;;;;;;;6.74;100.00;99490.53;4747182;30;20043;-76
2024/01/05 05:03:05;;;;;;;25.25;14.18;;;;;;;6.78;100.00;99485.81;4747595;30;20044;-76
2024/01/05 05:05:34;;;;;;;20.95;12.13;;;;;;;6.75;100.00;99481.81;4742821;30;20092;-76
2024/01/05 05:07:59;;;;;;;21.35;12.77;;;;;;;6.81;100.00;99485.84;4748173;30;20048;-76
2024/01/05 05:10:25;;;;;;;21.85;12.02;;;;;;;6.74;100.00;99482.19;4748850;30;20035;-76
2024/01/05 05:12:50;;;;;;;20.73;11.05;;;;;;;6.76;100.00;99482.63;4748589;30;20040;-76
2024/01/05 05:15:15;;;;;;;21.25;11.23;;;;;;;6.80;100.00;99477.88;4745957;30;20047;-75
2024/01/05 05:17:41;;;;;;;21.58;11.80;;;;;;;6.76;100.00;99466.72;4746700;30;20047;-76
2024/01/05 05:20:06;;;;;;;23.75;14.15;;;;;;;6.79;100.00;99470.69;4743989;30;20043;-75
2024/01/05 05:22:33;;;;;;;28.60;11.90;;;;;;;6.82;100.00;99464.38;4740813;30;20051;-76
2024/01/05 05:24:59;;;;;;;18.40;10.70;;;;;;;6.82;100.00;99467.16;4743266;30;20039;-76
2024/01/05 05:27:24;;;;;;;22.20;10.85;;;;;;;6.87;100.00;99469.56;4748757;30;20031;-75
2024/01/05 05:29:49;;;;;;;23.00;10.40;;;;;;;6.90;100.00;99466.03;4744577;30;20056;-75
2024/01/05 05:32:15;;;;;;;15.88;9.57;;;;;;;6.89;100.00;99459.69;4744977;30;20040;-75
2024/01/05 05:34:41;;;;;;;19.60;9.95;;;;;;;6.90;100.00;99461.25;4742866;30;20040;-75
2024/01/05 05:37:07;;;;;;;20.52;9.50;;;;;;;6.89;100.00;99464.41;4744459;30;20148;-75
2024/01/05 05:39:32;;;;;;;20.98;9.80;;;;;;;6.96;100.00;99455.31;4743754;30;20598;-75
2024/01/05 05:41:58;;;;;;;21.52;9.85;;;;;;;7.00;100.00;99458.91;4742236;30;20781;-76
2024/01/05 05:44:23;;;;;;;20.13;9.45;;;;;;;7.00;100.00;99451.41;4745266;30;20069;-75
2024/01/05 05:46:48;;;;;;;14.15;8.30;;;;;;;7.00;100.00;99448.59;4740441;30;20040;-75
2024/01/05 05:49:14;;;;;;;20.08;9.20;;;;;;;7.03;100.00;99447.81;4741447;30;20089;-76
2024/01/05 05:51:39;;;;;;;15.35;8.70;;;;;;;7.01;100.00;99450.19;4743904;30;20043;-75
2024/01/05 05:54:04;;;;;;;18.48;9.10;;;;;;;6.98;100.00;99439.84;4743479;30;20039;-75
2024/01/05 05:56:30;;;;;;;15.13;8.50;;;;;;;7.02;100.00;99445.41;4744473;30;20043;-75
2024/01/05 05:58:55;;;;;;;14.75;7.93;;;;;;;7.01;100.00;99444.63;4735516;30;20035;-75
2024/01/05 06:01:23;;;;;;;20.05;9.10;;;;;;;7.02;100.00;99442.63;4745163;30;20044;-76
2024/01/05 06:03:48;;;;;;;17.10;8.30;;;;;;;7.07;100.00;99440.28;4741425;30;20087;-76
2024/01/05 06:06:21;;;;;;;18.85;7.30;;;;;;;7.04;100.00;99443.88;4743428;30;20139;-75
2024/01/05 06:08:48;;;;;;;15.13;7.25;;;;;;;7.07;100.00;99443.06;4741274;30;20032;-75
2024/01/05 06:11:17;;;;;;;15.52;7.25;;;;;;;7.08;100.00;99455.81;4742518;30;20040;-75
2024/01/05 06:13:42;;;;;;;13.48;7.85;;;;;;;7.09;100.00;99442.69;4743653;30;20400;-75
2024/01/05 06:16:07;;;;;;;16.70;8.00;;;;;;;7.08;100.00;99455.81;4742408;30;20040;-75
2024/01/05 06:18:34;;;;;;;19.65;7.30;;;;;;;7.10;100.00;99453.44;4747481;30;20044;-75
2024/01/05 06:21:00;;;;;;;23.92;6.60;;;;;;;7.10;100.00;99447.88;4739052;30;20043;-76
2024/01/05 06:23:25;;;;;;;17.95;6.28;;;;;;;7.12;100.00;99442.69;4747457;30;20036;-76
2024/01/05 06:25:51;;;;;;;15.32;7.40;;;;;;;7.13;100.00;99441.53;4747922;30;20096;-76
2024/01/05 06:28:16;;;;;;;14.90;6.88;;;;;;;7.12;100.00;99442.69;4745126;30;20032;-76
2024/01/05 06:30:44;;;;;;;17.60;6.40;;;;;;;7.13;100.00;99438.72;4747130;30;20093;-76
2024/01/05 06:33:10;;;;;;;13.25;6.57;;;;;;;7.16;100.00;99444.72;4750951;30;20032;-77
2024/01/05 06:35:35;;;;;;;16.77;6.78;;;;;;;7.17;100.00;99435.16;4753272;30;20055;-76
2024/01/05 06:38:00;;;;;;;14.77;6.00;;;;;;;7.16;100.00;99441.94;4747247;30;20043;-76
2024/01/05 06:40:25;;;;;;;18.17;7.15;;;;;;;7.20;100.00;99443.53;4750696;30;20040;-76
2024/01/05 06:42:51;;;;;;;13.25;5.85;;;;;;;7.16;100.00;99439.16;4753076;30;20047;-76
2024/01/05 06:45:16;;;;;;;16.52;6.60;;;;;;;7.16;100.00;99433.56;4753735;30;20051;-76
2024/01/05 06:47:42;;;;;;;13.82;5.60;;;;;;;7.16;100.00;99422.44;4752248;30;20111;-76
2024/01/05 06:50:07;;;;;;;13.07;6.50;;;;;;;7.16;100.00;99430.78;4747287;30;20063;-76
2024/01/05 06:52:33;;;;;;;19.23;8.68;;;;;;;7.18;100.00;99431.19;4744337;30;20037;-76
2024/01/05 06:54:59;;;;;;;14.68;6.05;;;;;;;7.15;100.00;99421.66;4750759;30;20046;-76
2024/01/05 06:57:25;;;;;;;15.30;6.75;;;;;;;7.15;100.00;99427.22;4752989;30;20463;-76
2024/01/05 06:59:51;;;;;;;10.45;4.70;;;;;;;7.24;100.00;99424.88;4749161;30;20076;-76
2024/01/05 07:02:17;;;;;;;11.85;6.30;;;;;;;7.28;100.00;99430.47;4751153;30;20028;-76
2024/01/05 07:04:42;;;;;;;12.80;5.43;;;;;;;7.26;100.00;99428.06;4748932;30;20059;-76
2024/01/05 07:07:08;;;;;;;12.68;5.43;;;;;;;7.17;100.00;99412.91;4750096;30;20423;-76
2024/01/05 07:09:33;;;;;;;13.55;4.88;;;;;;;7.19;100.00;99421.66;4745647;30;20051;-76
2024/01/05 07:11:59;;;;;;;10.82;5.85;;;;;;;7.21;100.00;99419.28;4747144;30;20036;-76
2024/01/05 07:14:27;;;;;;;13.63;5.25;;;;;;;7.18;100.00;99425.63;4750150;30;20079;-76
2024/01/05 07:16:54;;;;;;;19.08;6.00;;;;;;;7.21;100.00;99422.06;4741427;29;20523;-76
2024/01/05 07:19:19;;;;;;;13.90;4.40;;;;;;;7.21;100.00;99413.72;4740445;30;20111;-76
2024/01/05 07:21:44;;;;;;;9.00;5.07;;;;;;;7.18;100.00;99408.94;4745440;30;20124;-76
2024/01/05 07:24:14;;;;;;;17.05;5.38;;;;;;;7.22;100.00;99416.13;4757552;30;20050;-76
2024/01/05 07:26:39;;;;;;;9.40;4.88;;;;;;;7.24;100.00;99413.75;4754953;30;20744;-76
2024/01/05 07:29:04;;;;;;;13.15;4.70;;;;;;;7.27;100.00;99417.72;4755546;30;20047;-76
2024/01/05 07:31:30;;;;;;;15.88;5.47;;;;;;;7.27;100.00;99420.50;4757941;30;20035;-76
2024/01/05 07:33:56;;;;;;;9.48;3.67;;;;;;;7.30;100.00;99411.38;4742958;30;20042;-76
2024/01/05 07:36:22;;;;;;;18.92;6.18;;;;;;;7.31;100.00;99408.19;4738983;30;20128;-73
2024/01/05 07:38:47;;;;;;;18.33;4.93;;;;;;;7.28;100.00;99410.97;4743524;30;20128;-73
2024/01/05 07:41:16;;;;;;;12.20;4.65;;;;;;;7.32;100.00;99409.00;4743810;30;20040;-72
2024/01/05 07:43:42;;;;;;;10.90;4.13;;;;;;;7.32;100.00;99403.44;4745630;30;20032;-74
2024/01/05 07:46:07;;;;;;;10.50;3.97;;;;;;;7.34;100.00;99401.06;4743589;30;20397;-74
2024/01/05 07:48:33;;;;;;;17.73;4.70;;;;;;;7.40;100.00;99399.50;4740824;30;20092;-73
2024/01/05 07:51:02;;;;;;;9.07;3.88;;;;;;;7.37;100.00;99400.25;4741571;30;20036;-73
2024/01/05 07:53:31;;;;;;;6.95;4.30;;;;;;;7.37;100.00;99396.69;4735980;30;20040;-73
2024/01/05 07:55:59;;;;;;;7.50;3.33;;;;;;;7.39;100.00;99403.44;4741693;30;20172;-72
2024/01/05 07:58:24;;;;;;;9.88;3.25;;;;;;;7.39;100.00;99406.25;4745330;30;20496;-73
2024/01/05 08:00:50;;;;;;;8.77;4.78;;;;;;;7.38;100.00;99406.63;4748533;30;20071;-73
2024/01/05 08:03:15;;;;;;;8.07;4.70;;;;;;;7.41;100.00;99412.22;4747302;30;20082;-76
2024/01/05 08:05:40;;;;;;;6.97;3.47;;;;;;;7.40;100.00;99405.06;4739233;30;20059;-75
2024/01/05 08:08:06;;;;;;;9.30;3.67;;;;;;;7.41;100.00;99403.84;4739647;30;20115;-73
2024/01/05 08:10:31;;;;;;;10.30;3.20;;;;;;;7.35;100.00;99402.66;4745084;30;20446;-74
2024/01/05 08:12:57;;;;;;;5.60;3.13;;;;;;;7.39;100.00;99397.09;4741294;30;20032;-73
2024/01/05 08:15:22;;;;;;;8.35;3.65;;;;;;;7.39;100.00;99397.88;4743923;30;20043;-74
2024/01/05 08:17:47;;;;;;;11.40;5.57;;;;;;;7.35;100.00;99391.50;4738976;29;20434;-73
2024/01/05 08:20:13;;;;;;;7.47;4.93;;;;;;;7.38;100.00;99403.84;4739543;30;20411;-72
2024/01/05 08:22:38;;;;;;;16.25;4.80;;;;;;;7.37;100.00;99400.25;4748732;30;20123;-74
2024/01/05 08:25:04;;;;;;;6.00;3.15;;;;;;;7.40;100.00;99399.50;4737823;30;20717;-76
2024/01/05 08:27:29;;;;;;;6.22;2.70;;;;;;;7.41;100.00;99401.06;4739518;30;20039;-74
2024/01/05 08:29:55;;;;;;;7.57;3.50;;;;;;;7.41;100.00;99405.84;4746787;30;20044;-74
2024/01/05 08:32:21;;;;;;;6.05;2.55;;;;;;;7.40;100.00;99409.81;4741556;30;20036;-74
2024/01/05 08:34:46;;;;;;;9.10;3.03;;;;;;;7.38;100.00;99407.44;4743755;30;20039;-75
2024/01/05 08:37:11;;;;;;;4.65;2.90;;;;;;;7.39;100.00;99400.66;4740459;30;20047;-73
2024/01/05 08:39:39;;;;;;;7.85;2.90;;;;;;;7.40;100.00;99405.06;4745388;30;20040;-73
2024/01/05 08:42:08;;;;;;;12.02;3.00;;;;;;;7.37;100.00;99400.25;4739529;30;20067;-73
2024/01/05 08:44:35;;;;;;;11.32;2.85;;;;;;;7.37;100.00;99403.06;4741450;30;20578;-75
2024/01/05 08:47:00;;;;;;;8.77;2.70;;;;;;;7.39;100.00;99408.22;4745622;30;20395;-75
2024/01/05 08:49:26;;;;;;;7.20;2.72;;;;;;;7.38;100.00;99401.88;4747292;30;20036;-75
2024/01/05 08:51:52;;;;;;;6.10;3.45;;;;;;;7.41;100.00;99401.06;4742610;30;20047;-75
2024/01/05 08:54:17;;;;;;;7.43;2.55;;;;;;;7.42;100.00;99402.69;4741722;30;20040;-75
2024/01/05 08:56:44;;;;;;;7.78;3.40;;;;;;;7.38;100.00;99413.00;4747018;30;20051;-74
2024/01/05 08:59:09;;;;;;;10.27;3.42;;;;;;;7.37;100.00;99399.47;4743385;30;20040;-74
2024/01/05 09:01:35;;;;;;;6.15;2.10;;;;;;;7.39;100.00;99411.00;4741826;30;20094;-74
2024/01/05 09:04:00;;;;;;;3.45;1.77;;;;;;;7.40;100.00;99407.84;4739959;30;20036;-75
2024/01/05 09:06:26;;;;;;;6.07;1.80;;;;;;;7.38;100.00;99415.78;4739567;30;20051;-74
2024/01/05 09:08:52;;;;;;;5.32;2.20;;;;;;;7.41;100.00;99428.91;4742379;30;20520;-77
2024/01/05 09:11:17;;;;;;;6.32;2.10;;;;;;;7.34;100.00;99423.34;4743818;30;20040;-75
2024/01/05 09:13:42;;;;;;;2.92;1.52;;;;;;;7.39;100.00;99422.16;4741563;30;20123;-75
2024/01/05 09:16:08;;;;;;;4.25;1.23;;;;;;;7.37;100.00;99422.53;4746145;30;20115;-75
2024/01/05 09:18:36;;;;;;;1.52;1.13;;;;;;;7.36;100.00;99422.91;4743867;30;20127;-74
2024/01/05 09:21:02;;;;;;;4.95;1.70;;;;;;;7.34;100.00;99428.91;4739592;30;20058;-74
2024/01/05 09:23:28;;;;;;;8.55;1.80;;;;;;;7.39;100.00;99425.72;4739775;30;20044;-74
2024/01/05 09:25:53;;;;;;;6.32;1.63;;;;;;;7.46;100.00;99431.34;4742923;30;20155;-75
2024/01/05 09:28:18;;;;;;;8.43;1.52;;;;;;;7.48;100.00;99430.91;4743440;30;20403;-76
2024/01/05 09:30:44;;;;;;;3.47;1.17;;;;;;;7.44;100.00;99427.31;4742157;30;20055;-76
2024/01/05 09:33:09;;;;;;;4.60;2.08;;;;;;;7.45;100.00;99431.72;4742439;30;20040;-75
2024/01/05 09:35:34;;;;;;;1.48;1.27;;;;;;;7.46;100.00;99436.91;4744261;30;20127;-75
2024/01/05 09:38:00;;;;;;;5.05;1.23;;;;;;;7.45;100.00;99432.50;4737167;30;20040;-75
2024/01/05 09:40:26;;;;;;;2.28;0.90;;;;;;;7.46;100.00;99442.47;4739279;30;20508;-76
2024/01/05 09:42:52;;;;;;;1.65;1.10;;;;;;;7.47;100.00;99449.63;4742584;30;20035;-76
2024/01/05 09:45:21;;;;;;;3.17;1.75;;;;;;;7.51;100.00;99450.44;4741411;30;20396;-75
2024/01/05 09:47:48;;;;;;;1.38;0.85;;;;;;;7.52;100.00;99457.59;4745797;30;20047;-75
2024/01/05 09:50:16;;;;;;;1.00;0.65;;;;;;;7.45;100.00;99452.00;4744665;30;20036;-75
2024/01/05 09:52:42;;;;;;;1.92;1.30;;;;;;;7.32;100.00;99454.34;4745373;30;20415;-75
2024/01/05 09:55:08;;;;;;;1.83;1.30;;;;;;;7.32;100.00;99450.75;4744319;30;20557;-76
2024/01/05 09:57:34;;;;;;;3.65;0.70;;;;;;;7.29;100.00;99451.53;4744163;30;20032;-76
2024/01/05 10:00:03;;;;;;;2.58;0.80;;;;;;;7.20;100.00;99445.53;4739307;30;20067;-75
2024/01/05 10:02:39;;;;;;;7.22;0.77;;;;;;;7.20;100.00;99445.53;4746406;30;20051;-76
2024/01/05 10:05:05;;;;;;;1.75;1.50;;;;;;;7.29;100.00;99454.31;4743241;30;20151;-76
2024/01/05 10:07:31;;;;;;;2.13;0.80;;;;;;;7.16;100.00;99444.72;4743108;30;20115;-76
2024/01/05 10:09:58;;;;;;;1.40;0.70;;;;;;;7.25;100.00;99459.88;4744991;30;20050;-76
2024/01/05 10:12:24;;;;;;;2.55;1.00;;;;;;;7.20;100.00;99448.31;4739007;30;20577;-76
2024/01/05 10:14:50;;;;;;;2.50;1.23;;;;;;;7.14;100.00;99447.88;4741030;30;20036;-77
2024/01/05 10:17:16;;;;;;;1.25;0.90;;;;;;;7.09;100.00;99462.16;4742013;30;20499;-76
2024/01/05 10:19:49;;;;;;;0.95;0.57;;;;;;;6.99;100.00;99447.00;4744494;30;20051;-76
2024/01/05 10:22:14;;;;;;;3.58;0.73;;;;;;;7.03;100.00;99445.03;4746256;30;20411;-76
2024/01/05 10:24:41;;;;;;;2.05;0.73;;;;;;;6.91;100.00;99450.91;4746816;30;20040;-75
2024/01/05 10:27:08;;;;;;;1.55;0.70;;;;;;;6.96;100.00;99442.22;4745440;30;20032;-75
2024/01/05 10:29:44;;;;;;;0.93;0.80;;;;;;;6.94;100.00;99443.81;4738733;30;20043;-76
2024/01/05 10:32:17;;;;;;;1.10;1.00;;;;;;;6.88;100.00;99444.16;4738872;30;20040;-76
2024/01/05 10:34:46;;;;;;;0.88;0.80;;;;;;;6.91;100.00;99450.91;4742263;30;20040;-76
2024/01/05 10:37:13;;;;;;;0.90;0.60;;;;;;;6.80;100.00;99438.94;4745472;30;20036;-75
2024/01/05 10:39:44;;;;;;;0.70;0.60;;;;;;;6.97;100.00;99443.00;4744242;30;20040;-76
2024/01/05 10:42:24;;;;;;;1.45;0.68;;;;;;;6.99;100.00;99441.44;4740815;30;20036;-75
2024/01/05 10:44:51;;;;;;;1.17;0.77;;;;;;;6.78;100.00;99438.53;4738759;30;20130;-76
2024/01/05 10:47:18;;;;;;;0.65;0.60;;;;;;;6.81;100.00;99434.97;4742923;30;20055;-76
2024/01/05 10:49:49;;;;;;;1.63;1.52;;;;;;;6.91;100.00;99442.56;4740911;30;20039;-75
2024/01/05 10:52:22;;;;;;;1.88;0.90;;;;;;;7.00;100.00;99440.25;4742161;30;20082;-75
2024/01/05 10:54:50;;;;;;;2.00;0.88;;;;;;;6.96;100.00;99441.41;4735642;30;20566;-76
2024/01/05 10:57:16;;;;;;;0.80;0.80;;;;;;;6.87;100.00;99433.41;4739564;30;20040;-75
2024/01/05 10:59:46;;;;;;;1.30;0.80;;;;;;;6.84;100.00;99439.75;4735527;30;20040;-75
2024/01/05 11:02:20;;;;;;;3.05;1.13;;;;;;;6.85;100.00;99438.56;4743326;30;20078;-76
2024/01/05 11:04:51;;;;;;;1.55;1.40;;;;;;;6.83;100.00;99432.59;4742746;30;20044;-73
2024/01/05 11:07:18;;;;;;;1.38;0.82;;;;;;;6.76;100.00;99433.34;4744069;30;20028;-73
2024/01/05 11:09:56;;;;;;;1.05;0.95;;;;;;;6.81;100.00;99434.97;4737957;30;20400;-74
2024/01/05 11:12:38;;;;;;;2.40;0.82;;;;;;;6.93;100.00;99426.28;4732505;30;20424;-73
2024/01/05 11:15:30;;;;;;;1.00;0.80;;;;;;;6.82;100.00;99431.00;4735279;30;20076;-73
2024/01/05 11:18:19;;;;;;;3.55;1.20;;;;;;;6.82;100.00;99433.78;4743956;30;21490;-75
2024/01/05 11:21:08;;;;;;;4.68;0.90;;;;;;;6.75;100.00;99420.66;4733929;30;20525;-75
2024/01/05 11:23:34;;;;;;;1.23;0.82;;;;;;;6.72;100.00;99427.78;4745358;30;20136;-75